Time;durP1;ratioP1;P1;durP2;ratioP2;P2;SDS_P1;SDS_P2;PMS_P1;PMS_P2;Temp;Humidity;BMP_temperature;BMP_pressure;BME280_temperature;BME280_humidity;BME280_pressure;Samples;Min_cycle;Max_cycle;Signal;HPM_P1;HPM_P2
2023/12/26 00:02:05;;;;;;;0.95;0.15;;;11.80;99.90;;;;;;4988680;28;20073;-69
2023/12/26 00:04:30;;;;;;;0.22;0.15;;;11.80;99.90;;;;;;4975201;28;20201;-67
2023/12/26 00:06:56;;;;;;;2.08;0.50;;;11.80;99.90;;;;;;4993875;28;20545;-68
2023/12/26 00:09:21;;;;;;;0.45;0.30;;;11.80;99.90;;;;;;4975605;28;20394;-69
2023/12/26 00:11:47;;;;;;;0.20;0.20;;;11.70;99.90;;;;;;4976389;28;20423;-69
2023/12/26 00:14:15;;;;;;;0.38;0.30;;;11.70;99.90;;;;;;4972479;28;20065;-69
2023/12/26 00:16:40;;;;;;;0.50;0.50;;;11.70;99.90;;;;;;4974934;28;20046;-68
2023/12/26 00:19:06;;;;;;;0.00;0.00;;;11.70;99.90;;;;;;4978485;28;20118;-68
2023/12/26 00:21:32;;;;;;;0.47;0.30;;;11.80;99.90;;;;;;4976562;28;20048;-68
2023/12/26 00:23:57;;;;;;;0.60;0.60;;;11.80;99.90;;;;;;4976520;28;20137;-68
2023/12/26 00:26:23;;;;;;;1.50;1.45;;;11.70;99.90;;;;;;4973812;28;20453;-69
2023/12/26 00:28:48;;;;;;;1.17;0.25;;;11.80;99.90;;;;;;4976386;28;20402;-69
2023/12/26 00:31:14;;;;;;;0.20;0.20;;;11.80;99.90;;;;;;4989631;28;20093;-68
2023/12/26 00:33:40;;;;;;;1.42;0.68;;;11.80;99.90;;;;;;4975639;28;20573;-69
2023/12/26 00:36:05;;;;;;;0.50;0.30;;;11.80;99.90;;;;;;4973152;28;20083;-69
2023/12/26 00:38:31;;;;;;;0.25;0.10;;;11.80;99.90;;;;;;4975699;28;20045;-69
2023/12/26 00:40:57;;;;;;;0.75;0.45;;;11.80;99.90;;;;;;4975569;28;20197;-69
2023/12/26 00:43:22;;;;;;;0.00;0.00;;;11.70;99.90;;;;;;4974556;28;20035;-69
2023/12/26 00:45:48;;;;;;;0.80;0.45;;;11.80;99.90;;;;;;4974901;28;20498;-69
2023/12/26 00:48:13;;;;;;;0.00;0.00;;;11.70;99.90;;;;;;4975973;28;20447;-69
2023/12/26 00:50:41;;;;;;;0.28;0.17;;;11.70;99.90;;;;;;4975100;28;20061;-69
2023/12/26 00:53:10;;;;;;;0.05;0.05;;;11.70;99.90;;;;;;4974993;28;20413;-68
2023/12/26 00:55:35;;;;;;;0.95;0.20;;;11.70;99.90;;;;;;4973584;28;20046;-68
2023/12/26 00:58:01;;;;;;;2.47;0.77;;;11.70;99.90;;;;;;4977472;28;20045;-68
2023/12/26 01:00:27;;;;;;;0.10;0.10;;;11.80;99.90;;;;;;4973865;28;20747;-70
2023/12/26 01:02:53;;;;;;;0.10;0.10;;;11.70;99.90;;;;;;4974489;28;20045;-69
2023/12/26 01:05:19;;;;;;;0.00;0.00;;;11.70;99.90;;;;;;4972496;28;20454;-70
2023/12/26 01:07:44;;;;;;;0.80;0.45;;;11.70;99.90;;;;;;4976056;28;20435;-69
2023/12/26 01:10:10;;;;;;;0.10;0.10;;;11.70;99.90;;;;;;4979904;28;20045;-68
2023/12/26 01:12:35;;;;;;;0.30;0.30;;;11.60;99.90;;;;;;4973393;28;20038;-68
2023/12/26 01:15:01;;;;;;;2.35;1.52;;;11.60;99.90;;;;;;4971304;28;20057;-68
2023/12/26 01:17:26;;;;;;;0.85;0.45;;;11.50;99.90;;;;;;4973153;28;20042;-69
2023/12/26 01:19:52;;;;;;;2.15;0.98;;;11.50;99.90;;;;;;4973400;28;20701;-69
2023/12/26 01:22:18;;;;;;;0.35;0.32;;;11.40;99.90;;;;;;4975596;28;20064;-67
2023/12/26 01:24:43;;;;;;;1.23;0.73;;;11.40;99.90;;;;;;4972452;28;20034;-70
2023/12/26 01:27:09;;;;;;;0.40;0.28;;;11.30;99.90;;;;;;4975716;28;20042;-71
2023/12/26 01:29:34;;;;;;;0.15;0.15;;;11.40;99.90;;;;;;4976380;28;20129;-73
2023/12/26 01:32:01;;;;;;;0.25;0.22;;;11.30;99.90;;;;;;4974999;28;20038;-72
2023/12/26 01:34:26;;;;;;;0.80;0.50;;;11.40;99.90;;;;;;4974694;28;20037;-73
2023/12/26 01:36:52;;;;;;;0.45;0.30;;;11.30;99.90;;;;;;4975745;28;20034;-72
2023/12/26 01:39:17;;;;;;;1.10;0.22;;;11.30;99.90;;;;;;4973011;28;20040;-72
2023/12/26 01:41:43;;;;;;;0.20;0.20;;;11.30;99.90;;;;;;4973484;28;20049;-72
2023/12/26 01:44:08;;;;;;;2.25;0.28;;;11.30;99.90;;;;;;4971162;28;20074;-73
2023/12/26 01:46:34;;;;;;;0.10;0.10;;;11.30;99.90;;;;;;4975256;28;20034;-72
2023/12/26 01:49:00;;;;;;;0.32;0.20;;;11.30;99.90;;;;;;4975138;28;20410;-72
2023/12/26 01:51:29;;;;;;;0.20;0.20;;;11.20;99.90;;;;;;4973876;28;20038;-72
2023/12/26 01:53:54;;;;;;;0.00;0.00;;;11.20;99.90;;;;;;4973118;28;20050;-72
2023/12/26 01:56:21;;;;;;;0.00;0.00;;;11.20;99.90;;;;;;4974755;28;20042;-73
2023/12/26 01:58:49;;;;;;;0.00;0.00;;;11.20;99.90;;;;;;4974620;28;20445;-72
2023/12/26 02:01:15;;;;;;;0.50;0.20;;;11.20;99.90;;;;;;4973678;28;20055;-73
2023/12/26 02:03:41;;;;;;;0.30;0.30;;;11.40;99.90;;;;;;4974385;28;20042;-72
2023/12/26 02:06:07;;;;;;;0.10;0.10;;;11.30;99.90;;;;;;4971606;28;20126;-72
2023/12/26 02:08:34;;;;;;;0.10;0.10;;;11.20;99.90;;;;;;4973033;28;20065;-73
2023/12/26 02:10:59;;;;;;;0.00;0.00;;;11.20;99.90;;;;;;4975289;28;20035;-73
2023/12/26 02:13:25;;;;;;;0.30;0.25;;;11.10;99.90;;;;;;4981278;28;20045;-72
2023/12/26 02:15:54;;;;;;;0.93;0.40;;;11.10;99.90;;;;;;4969891;28;20929;-72
2023/12/26 02:18:20;;;;;;;1.33;0.20;;;11.20;99.90;;;;;;4973380;28;20589;-72
2023/12/26 02:20:46;;;;;;;0.00;0.00;;;11.20;99.90;;;;;;4973328;28;20512;-72
2023/12/26 02:23:12;;;;;;;0.25;0.17;;;11.20;99.90;;;;;;4973270;28;20038;-72
2023/12/26 02:25:37;;;;;;;1.20;0.60;;;11.10;99.90;;;;;;4973554;28;20167;-72
2023/12/26 02:28:05;;;;;;;0.05;0.03;;;11.20;99.90;;;;;;4974651;28;20046;-72
2023/12/26 02:30:32;;;;;;;0.40;0.40;;;11.10;99.90;;;;;;4988960;28;20050;-73
2023/12/26 02:32:59;;;;;;;0.00;0.00;;;11.10;99.90;;;;;;4974805;28;20047;-72
2023/12/26 02:35:26;;;;;;;0.60;0.20;;;11.10;99.90;;;;;;4976131;28;20073;-71
2023/12/26 02:37:52;;;;;;;0.28;0.28;;;11.10;99.90;;;;;;4976022;28;20568;-73
2023/12/26 02:40:17;;;;;;;1.20;0.40;;;11.00;99.90;;;;;;4974907;28;20038;-73
2023/12/26 02:42:43;;;;;;;0.95;0.57;;;11.10;99.90;;;;;;4977094;28;20030;-73
2023/12/26 02:45:09;;;;;;;0.85;0.43;;;11.10;99.90;;;;;;4976416;28;20439;-68
2023/12/26 02:47:34;;;;;;;0.35;0.15;;;11.00;99.90;;;;;;4976177;28;20708;-68
2023/12/26 02:50:00;;;;;;;0.00;0.00;;;10.90;99.90;;;;;;4976597;28;20027;-69
2023/12/26 02:52:26;;;;;;;0.00;0.00;;;11.00;99.90;;;;;;4976101;28;20646;-68
2023/12/26 02:54:51;;;;;;;0.00;0.00;;;10.90;99.90;;;;;;4975244;28;20390;-69
2023/12/26 02:57:17;;;;;;;0.08;0.08;;;11.00;99.90;;;;;;4976430;28;20418;-69
2023/12/26 02:59:42;;;;;;;0.43;0.20;;;10.90;99.90;;;;;;4976370;28;20064;-69
2023/12/26 03:02:08;;;;;;;0.30;0.30;;;11.00;99.90;;;;;;4977196;28;20042;-69
2023/12/26 03:04:34;;;;;;;0.20;0.00;;;11.00;99.90;;;;;;4975740;28;20042;-68
2023/12/26 03:06:59;;;;;;;0.60;0.13;;;11.00;99.90;;;;;;4976300;28;20057;-70
2023/12/26 03:09:25;;;;;;;0.10;0.10;;;11.00;99.90;;;;;;4976652;28;20073;-70
2023/12/26 03:11:50;;;;;;;0.43;0.40;;;11.00;99.90;;;;;;4978299;28;20707;-70
2023/12/26 03:14:16;;;;;;;0.95;0.13;;;11.10;99.90;;;;;;4978484;28;20637;-68
2023/12/26 03:16:42;;;;;;;0.00;0.00;;;11.00;99.90;;;;;;4980477;28;20508;-69
2023/12/26 03:19:07;;;;;;;0.00;0.00;;;11.00;99.90;;;;;;4978810;28;20390;-68
2023/12/26 03:21:33;;;;;;;0.05;0.05;;;11.00;99.90;;;;;;4973768;28;20057;-70
2023/12/26 03:23:58;;;;;;;0.60;0.10;;;11.00;99.90;;;;;;4991280;28;20046;-69
2023/12/26 03:26:24;;;;;;;0.30;0.30;;;11.00;99.90;;;;;;4975499;28;20038;-69
2023/12/26 03:28:49;;;;;;;0.10;0.10;;;11.00;99.90;;;;;;4976375;28;20050;-69
2023/12/26 03:31:15;;;;;;;0.17;0.17;;;11.00;99.90;;;;;;4970833;28;20153;-68
2023/12/26 03:33:40;;;;;;;0.00;0.00;;;11.00;99.90;;;;;;4974781;28;20125;-69
2023/12/26 03:36:08;;;;;;;0.85;0.85;;;11.00;99.90;;;;;;4974157;28;20612;-68
2023/12/26 03:38:35;;;;;;;0.32;0.25;;;11.00;99.90;;;;;;4975792;28;20517;-68
2023/12/26 03:41:00;;;;;;;0.20;0.20;;;11.00;99.90;;;;;;4974043;28;20047;-69
2023/12/26 03:43:26;;;;;;;0.20;0.20;;;10.90;99.90;;;;;;4975655;28;20046;-68
2023/12/26 03:45:52;;;;;;;0.00;0.00;;;11.00;99.90;;;;;;4974585;28;20034;-68
2023/12/26 03:48:17;;;;;;;0.28;0.28;;;11.00;99.90;;;;;;4978269;28;20197;-68
2023/12/26 03:50:43;;;;;;;0.00;0.00;;;10.90;99.90;;;;;;4975719;28;20038;-69
2023/12/26 03:53:09;;;;;;;0.10;0.08;;;10.90;99.90;;;;;;4974903;28;20034;-68
2023/12/26 03:55:34;;;;;;;0.75;0.30;;;11.00;99.90;;;;;;4974118;28;20034;-69
2023/12/26 03:58:01;;;;;;;0.00;0.00;;;11.00;99.90;;;;;;4974743;28;20046;-70
2023/12/26 04:00:28;;;;;;;0.15;0.10;;;10.90;99.90;;;;;;4973985;28;20223;-69
2023/12/26 04:02:53;;;;;;;0.47;0.15;;;10.90;99.90;;;;;;4975051;28;20042;-69
2023/12/26 04:05:19;;;;;;;0.00;0.00;;;10.90;99.90;;;;;;4974252;28;20062;-68
2023/12/26 04:07:46;;;;;;;0.20;0.20;;;10.90;99.90;;;;;;4974573;28;20125;-68
2023/12/26 04:10:11;;;;;;;0.00;0.00;;;11.00;99.90;;;;;;4974222;28;20045;-69
2023/12/26 04:12:37;;;;;;;1.77;0.40;;;11.00;99.90;;;;;;4976530;28;20042;-67
2023/12/26 04:15:03;;;;;;;0.00;0.00;;;10.90;99.90;;;;;;4977054;28;20152;-68
2023/12/26 04:17:28;;;;;;;0.17;0.10;;;11.00;99.90;;;;;;4978709;28;20254;-68
2023/12/26 04:19:54;;;;;;;0.00;0.00;;;11.00;99.90;;;;;;4980216;28;20126;-69
2023/12/26 04:22:20;;;;;;;0.05;0.05;;;10.90;99.90;;;;;;4971594;28;20425;-67
2023/12/26 04:24:45;;;;;;;0.08;0.08;;;10.90;99.90;;;;;;4973678;28;20415;-68
2023/12/26 04:27:11;;;;;;;0.20;0.10;;;11.00;99.90;;;;;;4974203;28;20507;-69
2023/12/26 04:29:36;;;;;;;0.90;0.55;;;10.90;99.90;;;;;;4975799;28;20816;-68
2023/12/26 04:32:02;;;;;;;0.10;0.10;;;10.90;99.90;;;;;;4968048;28;20455;-68
2023/12/26 04:34:27;;;;;;;0.00;0.00;;;10.90;99.90;;;;;;4972029;28;20073;-70
2023/12/26 04:36:53;;;;;;;0.10;0.10;;;10.90;99.90;;;;;;4974337;28;20113;-70
2023/12/26 04:39:18;;;;;;;0.00;0.00;;;11.00;99.90;;;;;;4974017;28;20394;-69
2023/12/26 04:41:47;;;;;;;0.00;0.00;;;11.00;99.90;;;;;;4973015;28;20054;-69
2023/12/26 04:44:13;;;;;;;0.00;0.00;;;11.00;99.90;;;;;;4971284;28;20042;-67
2023/12/26 04:46:38;;;;;;;0.00;0.00;;;10.90;99.90;;;;;;4972020;28;20154;-69
2023/12/26 04:49:04;;;;;;;0.00;0.00;;;10.90;99.90;;;;;;4975848;28;20046;-68
2023/12/26 04:51:30;;;;;;;0.00;0.00;;;10.90;99.90;;;;;;4975037;28;20179;-68
2023/12/26 04:53:56;;;;;;;0.00;0.00;;;10.90;99.90;;;;;;4973468;28;20041;-69
2023/12/26 04:56:22;;;;;;;0.00;0.00;;;10.90;99.90;;;;;;4971092;28;20199;-68
2023/12/26 04:58:50;;;;;;;0.10;0.10;;;10.80;99.90;;;;;;4974081;28;20039;-67
2023/12/26 05:01:17;;;;;;;0.17;0.17;;;10.80;99.90;;;;;;4971627;28;20049;-69
2023/12/26 05:03:44;;;;;;;0.00;0.00;;;10.60;99.90;;;;;;4972678;28;20545;-69
2023/12/26 05:06:10;;;;;;;0.00;0.00;;;10.80;99.90;;;;;;4972400;28;20066;-69
2023/12/26 05:08:40;;;;;;;0.00;0.00;;;10.70;99.90;;;;;;4974325;28;20122;-69
2023/12/26 05:11:06;;;;;;;0.00;0.00;;;10.70;99.90;;;;;;4972291;28;20034;-68
2023/12/26 05:13:33;;;;;;;0.00;0.00;;;10.70;99.90;;;;;;4989650;28;20118;-69
2023/12/26 05:16:03;;;;;;;0.20;0.20;;;10.70;99.90;;;;;;4976188;28;20043;-68
2023/12/26 05:18:29;;;;;;;0.00;0.00;;;10.60;99.90;;;;;;4972141;28;20038;-68
2023/12/26 05:20:55;;;;;;;0.00;0.00;;;10.60;99.90;;;;;;4980594;28;20057;-67
2023/12/26 05:23:20;;;;;;;0.00;0.00;;;10.70;99.90;;;;;;4977836;28;20042;-69
2023/12/26 05:25:46;;;;;;;0.10;0.10;;;10.60;99.90;;;;;;4974516;28;20026;-72
2023/12/26 05:28:12;;;;;;;0.00;0.00;;;10.70;99.90;;;;;;4973278;28;20053;-72
2023/12/26 05:30:37;;;;;;;4.85;1.02;;;10.60;99.90;;;;;;4974522;28;20068;-73
2023/12/26 05:33:03;;;;;;;0.35;0.35;;;10.60;99.90;;;;;;4967479;28;20042;-73
2023/12/26 05:35:29;;;;;;;0.85;0.85;;;10.60;99.90;;;;;;4955627;28;20046;-72
2023/12/26 05:37:54;;;;;;;0.30;0.30;;;10.50;99.90;;;;;;4965924;28;20052;-72
2023/12/26 05:40:20;;;;;;;0.05;0.05;;;10.70;99.90;;;;;;4964863;28;20495;-73
2023/12/26 05:42:47;;;;;;;0.38;0.15;;;10.70;99.90;;;;;;4960379;28;20085;-72
2023/12/26 05:45:13;;;;;;;0.00;0.00;;;10.90;99.90;;;;;;4961901;28;20227;-71
2023/12/26 05:47:38;;;;;;;0.00;0.00;;;10.90;99.90;;;;;;4966705;28;20288;-72
2023/12/26 05:50:04;;;;;;;0.17;0.13;;;10.90;99.90;;;;;;4962225;28;21420;-71
2023/12/26 05:52:30;;;;;;;0.57;0.30;;;10.90;99.90;;;;;;4964051;28;20163;-72
2023/12/26 05:54:56;;;;;;;0.57;0.20;;;10.90;99.90;;;;;;4966585;28;20071;-73
2023/12/26 05:57:21;;;;;;;0.05;0.05;;;10.90;99.90;;;;;;4967643;28;20401;-73
2023/12/26 05:59:47;;;;;;;0.00;0.00;;;10.90;99.90;;;;;;4965632;28;20132;-73
2023/12/26 06:02:12;;;;;;;0.45;0.30;;;10.80;99.90;;;;;;4967253;28;20045;-72
2023/12/26 06:04:38;;;;;;;0.00;0.00;;;10.80;99.90;;;;;;4966662;28;20136;-73
2023/12/26 06:07:03;;;;;;;0.38;0.30;;;10.80;99.90;;;;;;4965566;28;20047;-71
2023/12/26 06:09:29;;;;;;;3.83;0.73;;;10.70;99.90;;;;;;4971745;28;20043;-72
2023/12/26 06:11:55;;;;;;;0.00;0.00;;;10.70;99.90;;;;;;4968059;28;20038;-72
2023/12/26 06:14:22;;;;;;;0.38;0.20;;;10.70;99.90;;;;;;4970314;28;20130;-72
2023/12/26 06:16:48;;;;;;;0.70;0.55;;;10.70;99.90;;;;;;4971145;28;20138;-72
2023/12/26 06:19:13;;;;;;;0.63;0.20;;;10.70;99.90;;;;;;4967437;28;20137;-73
2023/12/26 06:21:39;;;;;;;0.45;0.35;;;10.60;99.90;;;;;;4968254;28;20432;-72
2023/12/26 06:24:04;;;;;;;2.35;1.00;;;10.60;99.90;;;;;;4965482;28;20418;-73
2023/12/26 06:26:30;;;;;;;1.45;0.77;;;10.50;99.90;;;;;;4968299;28;20351;-72
2023/12/26 06:28:55;;;;;;;2.83;0.73;;;10.50;99.90;;;;;;4977454;28;20472;-72
2023/12/26 06:31:21;;;;;;;0.32;0.30;;;10.50;99.90;;;;;;4978212;28;20511;-72
2023/12/26 06:33:47;;;;;;;1.20;0.57;;;10.40;99.90;;;;;;4977828;28;20034;-72
2023/12/26 06:36:12;;;;;;;0.08;0.08;;;10.40;99.90;;;;;;4961231;28;20050;-67
2023/12/26 06:38:38;;;;;;;0.28;0.20;;;10.40;99.90;;;;;;4977473;28;20209;-68
2023/12/26 06:41:04;;;;;;;1.13;0.57;;;10.50;99.90;;;;;;4975566;28;20050;-69
2023/12/26 06:43:30;;;;;;;0.00;0.00;;;10.50;99.90;;;;;;4960416;28;21235;-68
2023/12/26 06:45:56;;;;;;;1.40;0.50;;;10.40;99.90;;;;;;4976647;28;20042;-68
2023/12/26 06:48:22;;;;;;;1.10;0.43;;;10.40;99.90;;;;;;4961267;28;20096;-69
2023/12/26 06:50:49;;;;;;;0.00;0.00;;;10.40;99.90;;;;;;4978536;28;20046;-69
2023/12/26 06:53:14;;;;;;;0.93;0.75;;;10.40;99.90;;;;;;4978849;28;20191;-68
2023/12/26 06:55:40;;;;;;;33.88;1.88;;;10.40;99.90;;;;;;4961157;28;20492;-68
2023/12/26 06:58:05;;;;;;;0.52;0.38;;;10.30;99.90;;;;;;4976722;28;20038;-69
2023/12/26 07:00:31;;;;;;;0.20;0.00;;;10.40;99.90;;;;;;4978419;28;20046;-68
2023/12/26 07:02:57;;;;;;;0.00;0.00;;;;;;;;;;4978075;28;20038;-67
2023/12/26 07:05:23;;;;;;;0.00;0.00;;;10.20;99.90;;;;;;4976207;28;20058;-68
2023/12/26 07:07:49;;;;;;;0.00;0.00;;;10.20;99.90;;;;;;4978729;28;20133;-69
2023/12/26 07:10:14;;;;;;;0.00;0.00;;;10.20;99.90;;;;;;4969906;28;20039;-68
2023/12/26 07:12:40;;;;;;;0.00;0.00;;;10.30;99.90;;;;;;4967645;28;20173;-68
2023/12/26 07:15:06;;;;;;;0.00;0.00;;;10.20;99.90;;;;;;4974451;28;20057;-69
2023/12/26 07:17:32;;;;;;;1.45;0.77;;;10.10;99.90;;;;;;4978418;28;20536;-68
2023/12/26 07:19:58;;;;;;;0.08;0.08;;;10.20;99.90;;;;;;4977389;28;20038;-68
2023/12/26 07:22:24;;;;;;;0.00;0.00;;;10.10;99.90;;;;;;4969964;28;20109;-69
2023/12/26 07:24:49;;;;;;;0.00;0.00;;;10.10;99.90;;;;;;4969522;28;20042;-68
2023/12/26 07:27:15;;;;;;;0.00;0.00;;;10.10;99.90;;;;;;4961781;28;20042;-69
2023/12/26 07:29:41;;;;;;;0.00;0.00;;;10.10;99.90;;;;;;4969450;28;20039;-69
2023/12/26 07:32:06;;;;;;;4.75;0.52;;;10.00;99.90;;;;;;4964561;28;20057;-69
2023/12/26 07:34:32;;;;;;;0.28;0.28;;;10.10;99.90;;;;;;4964292;28;20043;-67
2023/12/26 07:36:59;;;;;;;0.15;0.10;;;;;;;;;;4968669;28;20046;-69
2023/12/26 07:39:25;;;;;;;0.00;0.00;;;;;;;;;;4962385;28;20046;-70
2023/12/26 07:41:52;;;;;;;0.00;0.00;;;;;;;;;;4971976;28;20117;-69
2023/12/26 07:44:18;;;;;;;0.00;0.00;;;;;;;;;;4968429;28;20117;-69
2023/12/26 07:46:45;;;;;;;0.00;0.00;;;;;;;;;;4975847;28;20371;-69
2023/12/26 07:49:11;;;;;;;0.00;0.00;;;;;;;;;;4964263;28;20464;-69
2023/12/26 07:51:38;;;;;;;1.63;1.52;;;;;;;;;;4964455;28;20367;-68
2023/12/26 07:54:05;;;;;;;0.00;0.00;;;;;;;;;;4964588;28;20071;-69
2023/12/26 07:56:32;;;;;;;0.00;0.00;;;;;;;;;;4967703;28;20457;-73
2023/12/26 07:58:58;;;;;;;0.00;0.00;;;;;;;;;;4971681;28;20030;-72
2023/12/26 08:01:26;;;;;;;0.00;0.00;;;;;;;;;;4965503;28;20687;-72
2023/12/26 08:03:52;;;;;;;0.00;0.00;;;;;;;;;;4968097;28;20039;-73
2023/12/26 08:06:18;;;;;;;0.00;0.00;;;;;;;;;;4965844;28;20474;-73
2023/12/26 08:08:44;;;;;;;0.45;0.35;;;;;;;;;;4965436;28;20478;-72
2023/12/26 08:11:10;;;;;;;0.00;0.00;;;;;;;;;;4961653;28;20042;-72
2023/12/26 08:13:36;;;;;;;0.00;0.00;;;;;;;;;;4967939;28;20153;-73
2023/12/26 08:16:04;;;;;;;0.00;0.00;;;;;;;;;;4969391;28;20305;-72
2023/12/26 08:18:30;;;;;;;0.00;0.00;;;;;;;;;;4967924;28;20596;-72
2023/12/26 08:20:57;;;;;;;0.00;0.00;;;;;;;;;;4968761;28;20047;-72
2023/12/26 08:23:24;;;;;;;0.00;0.00;;;;;;;;;;4965266;28;20036;-72
2023/12/26 08:25:49;;;;;;;0.13;0.03;;;10.00;99.90;;;;;;4948944;28;20375;-72
2023/12/26 08:28:15;;;;;;;0.20;0.20;;;10.00;99.90;;;;;;4970675;28;20035;-73
2023/12/26 08:30:41;;;;;;;0.40;0.40;;;10.00;99.90;;;;;;4963548;28;20041;-73
2023/12/26 08:33:07;;;;;;;0.15;0.15;;;10.00;99.90;;;;;;4971165;28;20628;-73
2023/12/26 08:35:34;;;;;;;0.40;0.17;;;10.00;99.90;;;;;;4963287;28;20137;-73
2023/12/26 08:37:59;;;;;;;0.05;0.05;;;9.90;99.90;;;;;;4967797;28;21254;-73
2023/12/26 08:40:25;;;;;;;0.00;0.00;;;9.90;99.90;;;;;;4959810;28;20493;-72
2023/12/26 08:42:50;;;;;;;0.65;0.25;;;9.90;99.90;;;;;;4964451;28;20045;-73
2023/12/26 08:45:17;;;;;;;0.00;0.00;;;10.00;99.90;;;;;;4964742;28;20038;-72
2023/12/26 08:47:43;;;;;;;0.00;0.00;;;10.10;99.90;;;;;;4969397;28;20065;-72
2023/12/26 08:50:09;;;;;;;0.00;0.00;;;10.10;99.90;;;;;;4979434;28;20042;-72
2023/12/26 08:52:42;;;;;;;0.00;0.00;;;10.10;99.90;;;;;;5045946;27;20924;-62
2023/12/26 08:55:08;;;;;;;0.00;0.00;;;10.10;99.90;;;;;;5038741;28;20159;-61
2023/12/26 08:57:33;;;;;;;0.00;0.00;;;10.10;99.90;;;;;;5039934;28;20304;-62
2023/12/26 09:00:00;;;;;;;2.67;2.22;;;10.20;99.90;;;;;;5031834;28;21235;-61
2023/12/26 09:02:25;;;;;;;0.03;0.00;;;10.20;99.90;;;;;;5033644;28;20037;-61
2023/12/26 09:04:51;;;;;;;0.00;0.00;;;10.10;99.90;;;;;;5035012;28;20033;-62
2023/12/26 09:07:17;;;;;;;0.00;0.00;;;10.20;99.90;;;;;;5039642;28;20029;-62
2023/12/26 09:09:42;;;;;;;0.00;0.00;;;10.20;99.90;;;;;;5042499;28;20025;-61
2023/12/26 09:12:08;;;;;;;0.10;0.10;;;10.10;99.90;;;;;;5038118;28;20204;-61
2023/12/26 09:14:35;;;;;;;1.20;0.80;;;10.00;99.90;;;;;;5038939;28;20052;-62
2023/12/26 09:17:01;;;;;;;0.22;0.22;;;10.20;99.90;;;;;;5038938;28;20339;-61
2023/12/26 09:19:28;;;;;;;0.65;0.65;;;10.10;99.90;;;;;;5034585;28;20048;-61
2023/12/26 09:21:54;;;;;;;0.50;0.50;;;10.10;99.90;;;;;;5040850;28;20037;-61
2023/12/26 09:24:19;;;;;;;0.00;0.00;;;10.10;99.90;;;;;;5039368;28;20421;-61
2023/12/26 09:26:45;;;;;;;0.00;0.00;;;10.20;99.90;;;;;;5038394;28;20044;-61
2023/12/26 09:29:11;;;;;;;0.55;0.28;;;10.20;99.90;;;;;;5035965;28;20040;-61
2023/12/26 09:31:36;;;;;;;0.00;0.00;;;10.00;99.90;;;;;;5033521;28;20041;-61
2023/12/26 09:34:02;;;;;;;0.00;0.00;;;9.90;99.90;;;;;;5036506;28;20033;-61
2023/12/26 09:36:28;;;;;;;0.75;0.70;;;9.90;99.90;;;;;;5030714;28;20569;-62
2023/12/26 09:38:53;;;;;;;0.00;0.00;;;10.00;99.90;;;;;;5037731;28;20243;-62
2023/12/26 09:41:26;;;;;;;0.00;0.00;;;10.00;99.90;;;;;;5038830;28;20041;-62
2023/12/26 09:43:54;;;;;;;0.00;0.00;;;10.10;99.90;;;;;;5033839;28;20044;-63
2023/12/26 09:46:20;;;;;;;0.30;0.30;;;10.10;99.90;;;;;;5034767;28;20061;-63
2023/12/26 09:48:46;;;;;;;0.00;0.00;;;10.10;99.90;;;;;;5039633;27;20124;-62
2023/12/26 09:51:21;;;;;;;0.00;0.00;;;10.10;99.90;;;;;;5034149;27;20130;-62
2023/12/26 09:53:48;;;;;;;0.30;0.20;;;10.10;99.90;;;;;;5038942;27;20111;-63
2023/12/26 09:56:14;;;;;;;0.00;0.00;;;10.10;99.90;;;;;;5040781;27;20124;-62
2023/12/26 09:58:43;;;;;;;1.45;0.28;;;10.10;99.90;;;;;;5038810;27;20445;-61
2023/12/26 10:01:12;;;;;;;3.85;0.10;;;10.10;99.90;;;;;;5035073;27;20083;-61
2023/12/26 10:03:39;;;;;;;0.22;0.22;;;10.10;99.90;;;;;;5025439;28;20037;-61
2023/12/26 10:06:05;;;;;;;2.45;1.38;;;10.20;99.90;;;;;;5025075;28;20047;-62
2023/12/26 10:08:31;;;;;;;0.32;0.15;;;10.20;99.90;;;;;;5025833;28;20049;-63
2023/12/26 10:10:57;;;;;;;0.03;0.03;;;10.10;99.90;;;;;;5028955;28;20052;-63
2023/12/26 10:13:22;;;;;;;0.28;0.10;;;10.10;99.90;;;;;;5013580;28;20377;-62
2023/12/26 10:15:48;;;;;;;9.98;1.23;;;10.20;99.90;;;;;;5027046;28;20320;-63
2023/12/26 10:18:15;;;;;;;0.95;0.60;;;10.00;99.90;;;;;;5024976;28;20037;-62
2023/12/26 10:20:41;;;;;;;0.00;0.00;;;10.00;99.90;;;;;;5023457;28;20372;-62
2023/12/26 10:23:07;;;;;;;1.58;0.47;;;9.90;99.90;;;;;;5025855;28;20501;-63
2023/12/26 10:25:33;;;;;;;0.00;0.00;;;;;;;;;;5027028;28;20041;-62
2023/12/26 10:28:00;;;;;;;0.60;0.13;;;;;;;;;;5022907;28;20570;-63
2023/12/26 10:30:26;;;;;;;0.08;0.08;;;;;;;;;;5018567;28;20040;-62
2023/12/26 10:32:59;;;;;;;0.00;0.00;;;9.80;99.90;;;;;;5025089;28;20531;-62
2023/12/26 10:35:25;;;;;;;0.32;0.10;;;9.90;99.90;;;;;;5022514;28;20432;-62
2023/12/26 10:37:53;;;;;;;0.38;0.25;;;9.80;99.90;;;;;;5024585;28;20240;-62
2023/12/26 10:40:18;;;;;;;0.40;0.30;;;9.80;99.90;;;;;;5024446;28;20037;-62
2023/12/26 10:42:48;;;;;;;0.45;0.45;;;9.60;99.90;;;;;;5022443;28;20569;-63
2023/12/26 10:45:14;;;;;;;0.00;0.00;;;9.60;99.90;;;;;;5013107;28;20497;-63
2023/12/26 10:47:47;;;;;;;0.00;0.00;;;9.70;99.90;;;;;;5025943;28;20095;-62
2023/12/26 10:50:12;;;;;;;1.65;0.17;;;9.70;99.90;;;;;;5019777;28;20060;-62
2023/12/26 10:52:41;;;;;;;0.00;0.00;;;9.60;99.90;;;;;;5025245;28;20059;-62
2023/12/26 10:55:08;;;;;;;2.90;0.68;;;9.70;99.90;;;;;;5018804;28;20132;-62
2023/12/26 10:57:34;;;;;;;3.10;1.45;;;9.80;99.90;;;;;;5011802;28;20587;-62
2023/12/26 11:00:01;;;;;;;0.00;0.00;;;9.80;99.90;;;;;;5027120;28;20045;-62
2023/12/26 11:02:26;;;;;;;0.00;0.00;;;9.80;99.90;;;;;;5024535;28;20033;-63
2023/12/26 11:04:53;;;;;;;0.20;0.20;;;9.80;99.90;;;;;;5021423;28;20059;-62
2023/12/26 11:07:21;;;;;;;0.00;0.00;;;9.90;99.90;;;;;;5018038;28;20147;-62
2023/12/26 11:09:46;;;;;;;0.00;0.00;;;9.90;99.90;;;;;;5006457;28;20422;-62
2023/12/26 11:12:12;;;;;;;3.00;0.63;;;10.00;99.90;;;;;;5019760;28;20343;-62
2023/12/26 11:14:38;;;;;;;2.72;0.22;;;10.00;99.90;;;;;;5010351;28;20459;-62
2023/12/26 11:17:06;;;;;;;0.38;0.20;;;10.10;99.90;;;;;;5019879;28;20049;-63
2023/12/26 11:19:32;;;;;;;0.70;0.70;;;10.00;99.90;;;;;;5021767;28;20064;-63
2023/12/26 11:21:58;;;;;;;1.60;0.68;;;10.10;99.90;;;;;;5018386;28;20128;-62
2023/12/26 11:24:23;;;;;;;0.00;0.00;;;10.00;99.90;;;;;;5053439;28;20052;-63
2023/12/26 11:26:49;;;;;;;0.20;0.10;;;10.10;99.90;;;;;;5019266;28;20046;-63
2023/12/26 11:29:15;;;;;;;0.20;0.20;;;10.10;99.90;;;;;;5020282;28;20030;-62
2023/12/26 11:31:41;;;;;;;0.28;0.17;;;10.10;99.90;;;;;;5021337;28;20061;-63
2023/12/26 11:34:10;;;;;;;0.00;0.00;;;10.10;99.90;;;;;;5020666;28;20037;-62
2023/12/26 11:36:36;;;;;;;0.00;0.00;;;10.10;99.90;;;;;;5023395;28;20049;-62
2023/12/26 11:39:02;;;;;;;0.00;0.00;;;10.20;99.90;;;;;;5018266;28;20579;-62
2023/12/26 11:41:28;;;;;;;0.55;0.20;;;10.20;99.90;;;;;;5024925;28;20401;-62
2023/12/26 11:43:53;;;;;;;0.00;0.00;;;10.20;99.90;;;;;;5019896;28;20137;-62
2023/12/26 11:46:19;;;;;;;3.53;0.63;;;10.30;99.90;;;;;;5020102;28;20136;-63
2023/12/26 11:48:45;;;;;;;0.63;0.20;;;10.30;99.90;;;;;;5023726;28;20099;-63
2023/12/26 11:51:10;;;;;;;1.10;0.22;;;10.30;99.90;;;;;;5023128;28;20064;-62
2023/12/26 11:53:36;;;;;;;4.38;0.95;;;10.30;99.90;;;;;;5022836;28;20036;-63
2023/12/26 11:56:01;;;;;;;2.00;0.32;;;10.30;99.90;;;;;;5023885;28;20033;-62
2023/12/26 11:58:27;;;;;;;0.00;0.00;;;10.30;99.90;;;;;;5021082;28;20036;-62
2023/12/26 12:00:52;;;;;;;0.40;0.20;;;10.40;99.90;;;;;;5020311;28;20030;-62
2023/12/26 12:03:18;;;;;;;0.10;0.10;;;10.50;99.90;;;;;;5018152;28;20042;-62
2023/12/26 12:05:44;;;;;;;4.93;0.90;;;10.50;99.90;;;;;;5019384;28;20243;-62
2023/12/26 12:08:13;;;;;;;9.93;1.75;;;10.40;99.90;;;;;;5018684;28;20060;-63
2023/12/26 12:11:07;;;;;;;0.00;0.00;;;10.20;99.90;;;;;;5051936;28;20034;-62
2023/12/26 12:13:33;;;;;;;0.90;0.47;;;10.30;99.90;;;;;;5020147;28;20354;-62
2023/12/26 12:15:58;;;;;;;1.15;0.70;;;10.30;99.90;;;;;;5019847;28;20099;-62
2023/12/26 12:18:24;;;;;;;9.20;1.27;;;10.30;99.90;;;;;;5022715;28;20467;-62
2023/12/26 12:20:50;;;;;;;0.28;0.10;;;10.10;99.90;;;;;;5022825;28;20087;-62
2023/12/26 12:23:15;;;;;;;1.20;0.65;;;10.00;99.90;;;;;;5021827;28;20048;-62
2023/12/26 12:25:41;;;;;;;0.00;0.00;;;10.00;99.90;;;;;;5025348;28;20052;-62
2023/12/26 12:28:09;;;;;;;0.00;0.00;;;10.00;99.90;;;;;;5022004;28;20456;-62
2023/12/26 12:30:34;;;;;;;0.63;0.35;;;10.00;99.90;;;;;;5022970;28;20064;-62
2023/12/26 12:33:19;;;;;;;0.00;0.00;;;10.00;99.90;;;;;;5018816;28;20466;-62
2023/12/26 12:35:47;;;;;;;0.00;0.00;;;10.10;99.90;;;;;;5020915;28;20033;-62
2023/12/26 12:38:15;;;;;;;0.30;0.30;;;10.10;99.90;;;;;;5020945;28;20302;-62
2023/12/26 12:40:43;;;;;;;0.95;0.63;;;10.10;99.90;;;;;;5020218;28;20514;-62
2023/12/26 12:43:09;;;;;;;1.08;0.10;;;10.10;99.90;;;;;;5012735;28;20125;-62
2023/12/26 12:45:35;;;;;;;6.03;2.17;;;10.20;1.00;;;;;;5022994;28;20048;-62
2023/12/26 12:48:02;;;;;;;0.00;0.00;;;10.10;1.00;;;;;;5017874;28;20055;-62
2023/12/26 12:50:30;;;;;;;2.65;0.32;;;10.10;99.90;;;;;;5018674;28;20034;-62